Time;durP1;ratioP1;P1;durP2;ratioP2;P2;SDS_P1;SDS_P2;PMS_P1;PMS_P2;Temp;Humidity;BMP_temperature;BMP_pressure;BME280_temperature;BME280_humidity;BME280_pressure;Samples;Min_cycle;Max_cycle;Signal;HPM_P1;HPM_P2
2022/12/27 14:08:41;;;;;;;33.65;13.15;;;;;;;;;;532808;27;20181;-74
2022/12/27 14:09:28;;;;;;;18.98;11.27;;;;;;;;;;530737;27;1664;-73
2022/12/27 14:10:17;;;;;;;19.75;11.40;;;;;;;;;;529509;27;1257;-75
2022/12/27 14:10:47;;;;;;;16.55;9.98;;;;;;;;;;529184;27;1361;-75
2022/12/27 14:11:02;;;;;;;16.95;9.90;;;;;;;;;;525941;28;1464;-75
2022/12/27 14:11:23;;;;;;;16.00;9.65;;;;;;;;;;254707;27;10000662;-75
2022/12/27 14:12:07;;;;;;;17.27;9.60;;;;;;;;;;526351;28;1507;-75
2022/12/27 14:12:51;;;;;;;16.05;9.32;;;;;;;;;;520027;28;1320;-75
2022/12/27 14:13:08;;;;;;;14.27;8.85;;;;;;;;;;520821;28;1436;-73
2022/12/27 14:13:32;;;;;;;13.70;8.73;;;;;;;;;;524530;28;1547;-75
2022/12/27 14:13:48;;;;;;;13.73;8.07;;;;;;;;;;527049;28;1471;-75
2022/12/27 14:14:05;;;;;;;14.95;8.32;;;;;;;;;;524566;28;1526;-75
2022/12/27 14:14:24;;;;;;;16.30;8.27;;;;;;;;;;524487;28;1451;-75
2022/12/27 14:14:41;;;;;;;12.00;7.90;;;;;;;;;;525142;28;1162;-73
2022/12/27 14:15:00;;;;;;;12.40;7.55;;;;;;;;;;524974;28;1145;-76
2022/12/27 14:15:19;;;;;;;12.07;7.53;;;;;;;;;;526624;28;1463;-77
2022/12/27 14:18:19;;;;;;;16.27;9.15;;;;;;;;;;529849;27;20788;-80
2022/12/27 14:19:05;;;;;;;19.05;10.05;;;;;;;;;;521247;28;1346;-75
2022/12/27 14:19:40;;;;;;;19.52;9.68;;;;;;;;;;523459;27;2417;-73
2022/12/27 14:20:21;;;;;;;18.15;9.57;;;;;;;;;;530679;27;1417;-73
2022/12/27 14:20:55;;;;;;;17.70;9.70;;;;;;;;;;524488;27;1562;-72
2022/12/27 14:21:16;;;;;;;17.40;8.35;;;;;;;;;;527725;27;1201;-73
2022/12/27 14:21:46;;;;;;;16.45;8.13;;;;;;;;;;527791;27;1341;-72
2022/12/27 14:22:43;;;;;;;16.33;7.88;;;;;;;;;;528111;27;1438;-72
2022/12/27 14:23:12;;;;;;;14.70;7.70;;;;;;;;;;517631;28;1314;-73
2022/12/27 14:23:46;;;;;;;14.75;7.40;;;;;;;;;;521363;28;1361;-72
2022/12/27 14:24:20;;;;;;;14.07;7.43;;;;;;;;;;525456;27;1732;-72
2022/12/27 14:24:44;;;;;;;15.10;7.30;;;;;;;;;;528024;27;1389;-73
2022/12/27 14:25:27;;;;;;;14.52;7.35;;;;;;;;;;525273;28;1389;-72
2022/12/27 14:26:24;;;;;;;13.85;7.10;;;;;;;;;;524787;28;1837;-72
2022/12/27 14:26:54;;;;;;;13.45;6.47;;;;;;;;;;528052;27;1595;-73
2022/12/27 14:27:31;;;;;;;12.90;6.50;;;;;;;;;;525495;28;1620;-74
2022/12/27 14:27:52;;;;;;;12.95;6.38;;;;;;;;;;525208;28;1426;-72
2022/12/27 14:28:20;;;;;;;11.77;6.38;;;;;;;;;;524594;28;1307;-73
2022/12/27 14:28:57;;;;;;;11.43;6.18;;;;;;;;;;524625;28;1440;-73
2022/12/27 14:29:24;;;;;;;10.82;6.07;;;;;;;;;;525410;28;1363;-73
2022/12/27 14:30:01;;;;;;;10.50;6.20;;;;;;;;;;524556;28;1390;-72
2022/12/27 14:30:29;;;;;;;11.35;6.10;;;;;;;;;;524368;28;1310;-72
2022/12/27 14:30:50;;;;;;;11.77;5.97;;;;;;;;;;526441;28;1395;-72
2022/12/27 14:31:30;;;;;;;10.88;5.90;;;;;;;;;;526349;27;1181;-73
2022/12/27 14:32:23;;;;;;;11.68;5.78;;;;;;;;;;530571;27;1484;-72
2022/12/27 14:32:59;;;;;;;10.88;5.70;;;;;;;;;;525403;27;1400;-73
2022/12/27 14:33:51;;;;;;;11.05;6.15;;;;;;;;;;525583;28;1277;-72
2022/12/27 14:34:36;;;;;;;11.32;5.55;;;;;;;;;;523458;28;1282;-72
2022/12/27 14:35:16;;;;;;;10.98;6.18;;;;;;;;;;516359;28;1594;-72
2022/12/27 14:36:08;;;;;;;11.30;5.60;;;;;;;;;;526248;27;1488;-72
2022/12/27 14:36:35;;;;;;;9.82;5.40;;;;;;;;;;530186;27;1135;-73
2022/12/27 14:37:15;;;;;;;8.75;5.30;;;;;;;;;;529142;27;1450;-72
2022/12/27 14:38:00;;;;;;;10.43;5.30;;;;;;;;;;527931;27;1343;-72
2022/12/27 14:38:40;;;;;;;10.15;5.40;;;;;;;;;;524901;28;1248;-73
2022/12/27 14:39:01;;;;;;;10.57;5.43;;;;;;;;;;524306;28;1343;-72
2022/12/27 14:39:29;;;;;;;10.07;5.15;;;;;;;;;;527954;27;1434;-72
2022/12/27 14:39:56;;;;;;;9.27;5.28;;;;;;;;;;530064;27;1115;-72
2022/12/27 14:40:30;;;;;;;9.70;4.97;;;;;;;;;;531066;27;1263;-73
2022/12/27 14:41:43;;;;;;;10.05;5.35;;;;;;;;;;529985;27;1143;-72
2022/12/27 14:42:33;;;;;;;8.57;4.88;;;;;;;;;;518768;28;1447;-72
2022/12/27 14:43:07;;;;;;;10.33;5.07;;;;;;;;;;518465;28;1479;-73
2022/12/27 14:43:48;;;;;;;9.18;5.10;;;;;;;;;;518782;28;1518;-72
2022/12/27 14:44:24;;;;;;;8.65;4.80;;;;;;;;;;517980;28;1334;-73
2022/12/27 14:45:17;;;;;;;10.43;5.00;;;;;;;;;;516553;28;1334;-72
2022/12/27 14:45:56;;;;;;;8.60;4.80;;;;;;;;;;516970;28;1474;-72
2022/12/27 14:46:43;;;;;;;9.25;5.25;;;;;;;;;;514273;28;1461;-73
2022/12/27 14:47:32;;;;;;;9.00;4.80;;;;;;;;;;515757;28;1464;-72
2022/12/27 14:48:20;;;;;;;7.82;4.50;;;;;;;;;;522569;27;1379;-73
2022/12/27 14:49:13;;;;;;;9.73;4.72;;;;;;;;;;518422;28;1257;-73
2022/12/27 14:49:31;;;;;;;8.50;4.82;;;;;;;;;;519085;28;1643;-73
2022/12/27 14:50:34;;;;;;;8.80;4.95;;;;;;;;;;522373;27;1497;-73
2022/12/27 14:50:53;;;;;;;9.25;4.57;;;;;;;;;;516344;28;1525;-73
2022/12/27 14:51:45;;;;;;;8.43;4.60;;;;;;;;;;513588;28;1720;-72
2022/12/27 14:52:03;;;;;;;9.70;4.80;;;;;;;;;;516278;28;1430;-73
2022/12/27 14:52:50;;;;;;;9.38;4.47;;;;;;;;;;513525;28;1438;-73
2022/12/27 14:53:24;;;;;;;8.45;4.53;;;;;;;;;;524209;28;1580;-72
2022/12/27 14:54:06;;;;;;;8.82;5.10;;;;;;;;;;525391;28;1371;-73
2022/12/27 14:54:45;;;;;;;8.27;4.38;;;;;;;;;;529922;27;1680;-72
2022/12/27 14:55:28;;;;;;;9.38;4.70;;;;;;;;;;530088;27;1333;-73
2022/12/27 14:55:51;;;;;;;8.70;4.72;;;;;;;;;;528944;27;1298;-73
2022/12/27 14:56:32;;;;;;;8.10;4.40;;;;;;;;;;526706;27;1120;-72
2022/12/27 14:56:58;;;;;;;9.48;4.70;;;;;;;;;;527685;27;1338;-73
2022/12/27 14:57:32;;;;;;;7.18;4.22;;;;;;;;;;526366;27;1143;-73
2022/12/27 14:57:50;;;;;;;8.68;4.45;;;;;;;;;;527815;27;1358;-72
2022/12/27 14:58:55;;;;;;;8.40;4.47;;;;;;;;;;527560;27;1414;-72
2022/12/27 14:59:29;;;;;;;9.85;4.70;;;;;;;;;;517734;28;1609;-73
2022/12/27 15:00:18;;;;;;;8.25;4.47;;;;;;;;;;516987;28;1421;-73
2022/12/27 15:00:58;;;;;;;7.72;4.20;;;;;;;;;;510963;28;1371;-72
2022/12/27 15:01:36;;;;;;;7.55;4.43;;;;;;;;;;515463;28;1073;-73
2022/12/27 15:02:14;;;;;;;8.10;4.35;;;;;;;;;;525211;27;1326;-72
2022/12/27 15:02:46;;;;;;;8.02;4.28;;;;;;;;;;527764;27;1945;-72
2022/12/27 15:03:27;;;;;;;9.30;4.30;;;;;;;;;;526910;27;1298;-72
2022/12/27 15:03:53;;;;;;;8.13;4.40;;;;;;;;;;527478;27;1252;-72
2022/12/27 15:04:16;;;;;;;8.45;4.47;;;;;;;;;;527530;27;1833;-74
2022/12/27 15:04:50;;;;;;;7.65;4.13;;;;;;;;;;525784;28;1438;-73
2022/12/27 15:05:15;;;;;;;9.65;4.43;;;;;;;;;;525942;27;1081;-75
2022/12/27 15:05:36;;;;;;;7.68;3.95;;;;;;;;;;528010;27;1055;-73
2022/12/27 15:06:02;;;;;;;7.70;4.30;;;;;;;;;;528033;27;1391;-75
2022/12/27 15:06:33;;;;;;;7.55;4.18;;;;;;;;;;528526;27;1307;-75
2022/12/27 15:07:31;;;;;;;7.70;4.07;;;;;;;;;;524621;28;1332;-74
2022/12/27 15:08:19;;;;;;;7.65;4.32;;;;;;;;;;516988;28;1312;-73
2022/12/27 15:08:49;;;;;;;7.88;4.40;;;;;;;;;;518545;28;1362;-74
2022/12/27 15:09:13;;;;;;;8.80;4.32;;;;;;;;;;524835;28;1395;-75
2022/12/27 15:09:42;;;;;;;7.72;4.28;;;;;;;;;;521004;28;1236;-73
2022/12/27 15:10:16;;;;;;;7.82;4.18;;;;;;;;;;525825;28;1136;-73
2022/12/27 15:10:44;;;;;;;7.20;4.00;;;;;;;;;;524865;28;2025;-74
2022/12/27 15:11:11;;;;;;;6.70;4.05;;;;;;;;;;523631;28;1438;-73
2022/12/27 15:11:38;;;;;;;8.50;4.35;;;;;;;;;;525181;28;1411;-73
2022/12/27 15:12:20;;;;;;;8.02;4.40;;;;;;;;;;524906;27;1113;-74
2022/12/27 15:12:37;;;;;;;8.93;4.00;;;;;;;;;;527145;27;1657;-73
2022/12/27 15:13:05;;;;;;;7.78;3.83;;;;;;;;;;524997;28;1671;-74
2022/12/27 15:13:30;;;;;;;7.80;3.95;;;;;;;;;;525508;28;1426;-74
2022/12/27 15:14:16;;;;;;;8.00;4.18;;;;;;;;;;525274;28;1484;-74
2022/12/27 15:14:53;;;;;;;7.07;3.90;;;;;;;;;;523399;28;1340;-73
2022/12/27 15:15:33;;;;;;;8.70;4.10;;;;;;;;;;525204;28;1817;-73
2022/12/27 15:16:13;;;;;;;7.22;3.85;;;;;;;;;;524717;28;1538;-74
2022/12/27 15:16:49;;;;;;;9.25;4.18;;;;;;;;;;525884;28;1497;-74
2022/12/27 15:17:45;;;;;;;7.68;3.95;;;;;;;;;;525416;28;1518;-73
2022/12/27 15:18:22;;;;;;;7.10;4.05;;;;;;;;;;519757;28;1154;-74
2022/12/27 15:19:35;;;;;;;5.65;3.70;;;;;;;;;;527686;27;1377;-74
2022/12/27 15:20:17;;;;;;;7.57;3.95;;;;;;;;;;523307;28;1423;-74
2022/12/27 15:21:04;;;;;;;7.10;3.95;;;;;;;;;;521514;28;1388;-74
2022/12/27 15:21:37;;;;;;;7.65;3.75;;;;;;;;;;516248;28;1409;-74
2022/12/27 15:22:02;;;;;;;8.32;4.07;;;;;;;;;;518192;28;1427;-74
2022/12/27 15:22:23;;;;;;;6.72;4.00;;;;;;;;;;515740;28;1355;-74
2022/12/27 15:23:07;;;;;;;6.18;3.58;;;;;;;;;;517721;28;1376;-74
2022/12/27 15:23:39;;;;;;;7.63;3.70;;;;;;;;;;520274;28;1393;-74
2022/12/27 15:24:03;;;;;;;7.05;3.75;;;;;;;;;;518405;28;1202;-74
2022/12/27 15:24:30;;;;;;;6.45;3.63;;;;;;;;;;519352;28;1337;-74
2022/12/27 15:24:54;;;;;;;6.30;3.60;;;;;;;;;;519881;28;1727;-73
2022/12/27 15:25:23;;;;;;;6.83;4.00;;;;;;;;;;519378;28;1702;-74
2022/12/27 15:25:56;;;;;;;8.07;3.80;;;;;;;;;;522448;28;1392;-74
2022/12/27 15:26:14;;;;;;;8.13;3.85;;;;;;;;;;525347;28;1455;-74
2022/12/27 15:26:45;;;;;;;7.65;3.85;;;;;;;;;;522753;28;1855;-73
2022/12/27 15:27:10;;;;;;;7.03;3.55;;;;;;;;;;523135;28;1360;-74
2022/12/27 15:27:38;;;;;;;7.03;3.78;;;;;;;;;;522522;28;1405;-74
2022/12/27 15:28:00;;;;;;;6.95;3.60;;;;;;;;;;521534;28;1772;-74
2022/12/27 15:28:31;;;;;;;7.22;3.70;;;;;;;;;;524172;28;1388;-74
2022/12/27 15:29:10;;;;;;;6.63;3.72;;;;;;;;;;526228;28;1403;-73
2022/12/27 15:29:46;;;;;;;6.30;3.60;;;;;;;;;;524879;27;1160;-73
2022/12/27 15:30:38;;;;;;;5.63;3.67;;;;;;;;;;526387;27;1349;-74
2022/12/27 15:30:58;;;;;;;6.25;3.60;;;;;;;;;;526880;27;1413;-73
2022/12/27 15:31:26;;;;;;;5.85;3.60;;;;;;;;;;524886;28;2007;-73
2022/12/27 15:31:44;;;;;;;7.10;3.78;;;;;;;;;;524364;28;1351;-73
2022/12/27 15:32:14;;;;;;;7.70;3.53;;;;;;;;;;523243;28;1412;-74
2022/12/27 15:33:00;;;;;;;7.05;3.50;;;;;;;;;;522724;28;1561;-74
2022/12/27 15:33:30;;;;;;;6.97;3.60;;;;;;;;;;522022;28;1397;-74
2022/12/27 15:33:56;;;;;;;6.75;3.78;;;;;;;;;;522192;28;1113;-74
2022/12/27 15:34:30;;;;;;;6.82;3.55;;;;;;;;;;522715;28;1244;-74
2022/12/27 15:34:59;;;;;;;5.72;3.53;;;;;;;;;;521777;28;1329;-74
2022/12/27 15:35:29;;;;;;;6.32;3.53;;;;;;;;;;521299;28;1399;-75
2022/12/27 15:36:07;;;;;;;6.82;3.58;;;;;;;;;;522092;28;1117;-74
2022/12/27 15:36:39;;;;;;;7.43;3.50;;;;;;;;;;521744;28;1273;-74
2022/12/27 15:36:55;;;;;;;6.72;3.58;;;;;;;;;;522530;28;1561;-74
2022/12/27 15:37:49;;;;;;;7.03;3.40;;;;;;;;;;521712;28;1359;-73
2022/12/27 15:38:09;;;;;;;6.90;3.40;;;;;;;;;;521321;28;1387;-74
2022/12/27 15:38:48;;;;;;;6.93;3.40;;;;;;;;;;522987;28;1398;-74
2022/12/27 15:39:04;;;;;;;6.63;3.50;;;;;;;;;;522932;28;1343;-74
2022/12/27 15:39:31;;;;;;;6.45;3.50;;;;;;;;;;521731;28;2058;-73
2022/12/27 15:39:47;;;;;;;6.32;3.50;;;;;;;;;;521103;28;1165;-73
2022/12/27 15:40:22;;;;;;;6.15;3.60;;;;;;;;;;520872;28;1385;-73
2022/12/27 15:40:54;;;;;;;7.20;3.63;;;;;;;;;;520932;28;1055;-74
2022/12/27 15:41:22;;;;;;;6.15;3.40;;;;;;;;;;525056;27;1438;-74
2022/12/27 15:41:59;;;;;;;6.43;3.40;;;;;;;;;;524244;28;1293;-73
2022/12/27 15:42:17;;;;;;;6.43;3.35;;;;;;;;;;527223;27;1398;-73
2022/12/27 15:42:44;;;;;;;6.88;3.38;;;;;;;;;;523244;28;1242;-73
2022/12/27 15:43:21;;;;;;;7.57;3.38;;;;;;;;;;523363;28;1401;-73
2022/12/27 15:43:39;;;;;;;5.18;3.17;;;;;;;;;;523962;27;1107;-74
2022/12/27 15:44:12;;;;;;;5.63;3.38;;;;;;;;;;525368;27;1769;-73
2022/12/27 15:44:52;;;;;;;6.05;3.65;;;;;;;;;;524194;27;1279;-74
2022/12/27 15:45:45;;;;;;;5.47;3.13;;;;;;;;;;528186;27;1095;-74
2022/12/27 15:46:06;;;;;;;6.32;3.47;;;;;;;;;;528388;27;1416;-74
2022/12/27 15:46:34;;;;;;;6.40;3.40;;;;;;;;;;527694;27;1232;-74
2022/12/27 15:47:05;;;;;;;6.00;3.40;;;;;;;;;;527597;27;1446;-74
2022/12/27 15:47:58;;;;;;;5.28;3.17;;;;;;;;;;525102;27;1733;-73
2022/12/27 15:48:43;;;;;;;5.63;3.38;;;;;;;;;;526586;27;1499;-74
2022/12/27 15:49:39;;;;;;;6.40;3.10;;;;;;;;;;526152;27;2036;-73
2022/12/27 15:50:03;;;;;;;7.40;3.55;;;;;;;;;;526284;27;1146;-74
2022/12/27 15:50:33;;;;;;;6.38;3.30;;;;;;;;;;526594;27;1221;-74
2022/12/27 15:51:10;;;;;;;6.63;3.30;;;;;;;;;;523141;28;1152;-73
2022/12/27 15:51:57;;;;;;;6.03;3.30;;;;;;;;;;524107;28;1514;-75
2022/12/27 15:52:23;;;;;;;6.25;3.17;;;;;;;;;;525459;28;1331;-74
2022/12/27 15:52:59;;;;;;;7.15;3.20;;;;;;;;;;525887;28;1238;-73
2022/12/27 15:53:37;;;;;;;6.18;3.40;;;;;;;;;;525665;27;1149;-73
2022/12/27 15:54:17;;;;;;;5.35;3.20;;;;;;;;;;523814;28;1355;-74
2022/12/27 15:54:41;;;;;;;4.97;3.20;;;;;;;;;;525020;28;1379;-73
2022/12/27 15:55:21;;;;;;;6.50;3.38;;;;;;;;;;521927;28;1447;-74
2022/12/27 15:56:13;;;;;;;6.00;3.20;;;;;;;;;;521661;28;1261;-74
2022/12/27 15:56:51;;;;;;;6.32;3.30;;;;;;;;;;525693;28;1270;-73
2022/12/27 15:57:18;;;;;;;6.07;3.13;;;;;;;;;;524456;28;1449;-73
2022/12/27 15:58:00;;;;;;;6.07;3.30;;;;;;;;;;521289;28;1204;-73
2022/12/27 15:58:19;;;;;;;5.50;2.95;;;;;;;;;;520924;28;1445;-73
2022/12/27 15:58:34;;;;;;;5.03;3.00;;;;;;;;;;523171;28;1492;-73
2022/12/27 15:59:27;;;;;;;5.13;3.00;;;;;;;;;;520073;28;1181;-73
2022/12/27 15:59:54;;;;;;;7.55;3.30;;;;;;;;;;523807;28;1258;-74
2022/12/27 16:00:13;;;;;;;5.80;3.00;;;;;;;;;;524571;28;2294;-73
2022/12/27 16:00:30;;;;;;;5.60;3.05;;;;;;;;;;524043;28;1303;-73
2022/12/27 16:01:14;;;;;;;5.25;2.90;;;;;;;;;;522380;28;1282;-74
2022/12/27 16:01:43;;;;;;;6.55;3.15;;;;;;;;;;521145;28;1422;-73
2022/12/27 16:02:27;;;;;;;6.20;3.10;;;;;;;;;;523015;28;1142;-74
2022/12/27 16:02:42;;;;;;;6.38;2.90;;;;;;;;;;527803;27;1268;-74
2022/12/27 16:03:00;;;;;;;6.60;2.97;;;;;;;;;;525345;27;1373;-74
2022/12/27 16:03:32;;;;;;;5.22;3.00;;;;;;;;;;525545;27;1758;-74
2022/12/27 16:03:49;;;;;;;5.32;2.80;;;;;;;;;;526352;27;1339;-73
2022/12/27 16:04:40;;;;;;;6.30;2.90;;;;;;;;;;523876;28;1310;-74
2022/12/27 16:05:25;;;;;;;6.13;3.10;;;;;;;;;;525647;27;1726;-73
2022/12/27 16:05:51;;;;;;;4.75;2.83;;;;;;;;;;520257;28;1456;-74
2022/12/27 16:06:28;;;;;;;5.50;2.95;;;;;;;;;;522851;28;1426;-73
2022/12/27 16:06:47;;;;;;;5.45;2.90;;;;;;;;;;522097;28;1515;-73
2022/12/27 16:07:03;;;;;;;5.13;2.80;;;;;;;;;;525220;28;1128;-74
2022/12/27 16:08:09;;;;;;;4.82;2.80;;;;;;;;;;520500;28;1238;-73
2022/12/27 16:08:31;;;;;;;4.82;3.05;;;;;;;;;;523063;28;1298;-74
2022/12/27 16:09:12;;;;;;;5.28;2.85;;;;;;;;;;520941;28;1392;-74
2022/12/27 16:09:35;;;;;;;6.15;2.83;;;;;;;;;;523830;28;1433;-74
2022/12/27 16:09:50;;;;;;;5.38;2.92;;;;;;;;;;521642;28;1950;-73
2022/12/27 16:10:31;;;;;;;5.18;2.78;;;;;;;;;;520542;28;1387;-74
2022/12/27 16:10:48;;;;;;;5.15;2.85;;;;;;;;;;520111;28;1332;-74
2022/12/27 16:11:11;;;;;;;5.00;2.80;;;;;;;;;;519560;28;1304;-75
2022/12/27 16:11:55;;;;;;;5.00;2.90;;;;;;;;;;519734;28;2295;-74
2022/12/27 16:12:14;;;;;;;4.10;2.80;;;;;;;;;;522303;28;1293;-73
2022/12/27 16:12:38;;;;;;;5.72;3.00;;;;;;;;;;522499;28;1392;-73
2022/12/27 16:13:08;;;;;;;5.28;2.80;;;;;;;;;;521665;28;2690;-73
2022/12/27 16:13:39;;;;;;;4.47;2.78;;;;;;;;;;523947;28;1500;-73
2022/12/27 16:14:21;;;;;;;5.07;2.90;;;;;;;;;;523521;28;1252;-73
2022/12/27 16:14:42;;;;;;;4.68;2.90;;;;;;;;;;523563;28;1457;-73
2022/12/27 16:15:36;;;;;;;5.10;2.70;;;;;;;;;;525905;27;1358;-73
2022/12/27 16:15:53;;;;;;;5.07;2.92;;;;;;;;;;524847;27;1231;-73
2022/12/27 16:16:31;;;;;;;4.68;2.70;;;;;;;;;;526775;27;1738;-74
2022/12/27 16:16:52;;;;;;;4.78;2.80;;;;;;;;;;527024;27;1516;-73
2022/12/27 16:17:29;;;;;;;4.85;2.70;;;;;;;;;;523740;28;1399;-74
2022/12/27 16:17:54;;;;;;;5.45;2.80;;;;;;;;;;523618;28;1682;-74
2022/12/27 16:18:18;;;;;;;4.50;2.72;;;;;;;;;;524449;28;1352;-73
2022/12/27 16:18:46;;;;;;;4.80;2.60;;;;;;;;;;523769;28;1388;-73
2022/12/27 16:19:18;;;;;;;4.68;2.63;;;;;;;;;;525339;28;1315;-74
2022/12/27 16:20:02;;;;;;;5.22;2.65;;;;;;;;;;525568;28;1319;-73
2022/12/27 16:20:20;;;;;;;4.55;2.63;;;;;;;;;;519050;28;1250;-73
2022/12/27 16:20:35;;;;;;;4.60;2.78;;;;;;;;;;526225;27;1172;-74
2022/12/27 16:20:56;;;;;;;4.67;2.80;;;;;;;;;;524235;28;1583;-74
2022/12/27 16:21:20;;;;;;;5.40;2.72;;;;;;;;;;524095;28;1134;-74
2022/12/27 16:21:40;;;;;;;5.32;2.97;;;;;;;;;;524190;28;1507;-74
2022/12/27 16:21:56;;;;;;;5.13;3.00;;;;;;;;;;523240;28;1175;-73
2022/12/27 16:22:52;;;;;;;5.15;2.90;;;;;;;;;;523610;28;1315;-74
2022/12/27 16:23:10;;;;;;;4.93;2.80;;;;;;;;;;519497;28;1261;-74
2022/12/27 16:23:30;;;;;;;4.78;2.80;;;;;;;;;;517342;28;1558;-74
2022/12/27 16:23:46;;;;;;;4.47;2.50;;;;;;;;;;517625;28;1330;-74
2022/12/27 16:24:12;;;;;;;5.00;2.67;;;;;;;;;;518189;28;1464;-73
2022/12/27 16:24:28;;;;;;;5.70;2.90;;;;;;;;;;514783;28;1272;-76
2022/12/27 16:24:44;;;;;;;5.43;2.85;;;;;;;;;;513193;28;1584;-73
2022/12/27 16:25:17;;;;;;;4.23;2.47;;;;;;;;;;514625;28;1429;-74
2022/12/27 16:25:34;;;;;;;4.82;2.65;;;;;;;;;;513976;28;1135;-73
2022/12/27 16:26:08;;;;;;;5.07;2.80;;;;;;;;;;515807;28;2127;-73
2022/12/27 16:26:33;;;;;;;4.78;2.80;;;;;;;;;;516249;28;1381;-74
2022/12/27 16:26:53;;;;;;;4.20;2.50;;;;;;;;;;515006;28;1402;-74
2022/12/27 16:27:26;;;;;;;4.75;2.72;;;;;;;;;;516551;28;1231;-74
2022/12/27 16:27:41;;;;;;;4.32;2.70;;;;;;;;;;516184;28;1908;-73
2022/12/27 16:28:01;;;;;;;4.03;2.53;;;;;;;;;;517535;28;1350;-74
2022/12/27 16:28:24;;;;;;;4.10;2.60;;;;;;;;;;516590;28;1166;-74
2022/12/27 16:28:39;;;;;;;4.33;2.53;;;;;;;;;;518043;28;1550;-74
2022/12/27 16:29:03;;;;;;;4.38;2.50;;;;;;;;;;519033;28;1111;-74
2022/12/27 16:29:22;;;;;;;4.47;2.35;;;;;;;;;;519421;28;1534;-74
2022/12/27 16:29:43;;;;;;;4.57;2.50;;;;;;;;;;519183;28;1425;-73
2022/12/27 16:29:58;;;;;;;4.85;2.70;;;;;;;;;;518952;28;1202;-74
2022/12/27 16:30:37;;;;;;;5.15;2.70;;;;;;;;;;520148;28;1396;-73
2022/12/27 16:30:57;;;;;;;4.28;2.50;;;;;;;;;;517093;28;1361;-74
2022/12/27 16:31:12;;;;;;;4.57;2.58;;;;;;;;;;516343;28;1351;-73
2022/12/27 16:31:31;;;;;;;4.47;2.70;;;;;;;;;;514581;28;1265;-74
2022/12/27 16:31:50;;;;;;;4.43;2.70;;;;;;;;;;514673;28;1363;-74
2022/12/27 16:32:18;;;;;;;4.00;2.60;;;;;;;;;;515269;28;1135;-74
2022/12/27 16:32:34;;;;;;;4.40;2.50;;;;;;;;;;515624;28;1386;-73
2022/12/27 16:32:49;;;;;;;5.22;2.65;;;;;;;;;;517434;28;1197;-74
2022/12/27 16:33:18;;;;;;;4.93;2.57;;;;;;;;;;517631;28;1351;-74
2022/12/27 16:33:37;;;;;;;4.40;2.80;;;;;;;;;;517531;28;1248;-74
2022/12/27 16:33:55;;;;;;;4.45;2.58;;;;;;;;;;516313;28;1590;-74
2022/12/27 16:34:19;;;;;;;4.28;2.47;;;;;;;;;;517250;28;1291;-73
2022/12/27 16:34:44;;;;;;;4.43;2.60;;;;;;;;;;519785;28;1548;-74
2022/12/27 16:35:12;;;;;;;5.07;2.72;;;;;;;;;;518680;28;1466;-74
2022/12/27 16:35:29;;;;;;;5.32;2.65;;;;;;;;;;520301;28;1670;-74
2022/12/27 16:35:44;;;;;;;5.55;2.70;;;;;;;;;;517871;28;1273;-73
2022/12/27 16:36:14;;;;;;;5.43;2.60;;;;;;;;;;516480;28;1237;-75
2022/12/27 16:36:32;;;;;;;3.85;2.50;;;;;;;;;;515184;28;1079;-75
2022/12/27 16:36:49;;;;;;;4.07;2.50;;;;;;;;;;513533;28;1250;-73
2022/12/27 16:37:19;;;;;;;5.30;2.45;;;;;;;;;;514274;28;1909;-73
2022/12/27 16:37:40;;;;;;;4.22;2.47;;;;;;;;;;515044;28;1242;-74
2022/12/27 16:37:56;;;;;;;4.30;2.40;;;;;;;;;;515498;28;1477;-73
2022/12/27 16:38:20;;;;;;;4.45;2.30;;;;;;;;;;514911;28;1309;-74
2022/12/27 16:38:38;;;;;;;4.30;2.40;;;;;;;;;;515688;28;1831;-74
2022/12/27 16:38:53;;;;;;;4.40;2.30;;;;;;;;;;517092;28;1241;-74
2022/12/27 16:39:16;;;;;;;4.40;2.38;;;;;;;;;;517700;28;1191;-73
2022/12/27 16:39:43;;;;;;;5.05;2.63;;;;;;;;;;517651;28;2014;-74
2022/12/27 16:40:09;;;;;;;4.55;2.30;;;;;;;;;;518250;28;1119;-74
2022/12/27 16:40:44;;;;;;;4.72;2.38;;;;;;;;;;520642;28;1324;-71
2022/12/27 16:41:22;;;;;;;4.13;2.58;;;;;;;;;;519032;28;1426;-71
2022/12/27 16:41:55;;;;;;;4.90;2.50;;;;;;;;;;516521;28;1403;-71
2022/12/27 16:42:11;;;;;;;3.88;2.50;;;;;;;;;;516943;28;1365;-71
2022/12/27 16:42:48;;;;;;;3.83;2.42;;;;;;;;;;517692;28;1238;-72
2022/12/27 16:43:03;;;;;;;4.00;2.47;;;;;;;;;;517722;28;1302;-71
2022/12/27 16:43:19;;;;;;;4.00;2.50;;;;;;;;;;517602;28;1225;-71
2022/12/27 16:43:50;;;;;;;4.65;2.35;;;;;;;;;;517996;28;2068;-71
2022/12/27 16:44:23;;;;;;;4.25;2.30;;;;;;;;;;515612;28;1430;-71
2022/12/27 16:44:51;;;;;;;4.65;2.40;;;;;;;;;;515871;28;1298;-71
2022/12/27 16:45:44;;;;;;;4.28;2.30;;;;;;;;;;516896;28;1887;-71
2022/12/27 16:46:11;;;;;;;3.90;2.53;;;;;;;;;;516995;28;1354;-71
2022/12/27 16:47:01;;;;;;;4.15;2.38;;;;;;;;;;518325;28;1374;-72
2022/12/27 16:47:53;;;;;;;4.95;2.47;;;;;;;;;;518036;28;1456;-71
2022/12/27 16:48:39;;;;;;;4.47;2.35;;;;;;;;;;517256;28;1647;-71
2022/12/27 16:49:06;;;;;;;4.60;2.20;;;;;;;;;;512242;28;1340;-71
2022/12/27 16:49:53;;;;;;;4.55;2.40;;;;;;;;;;512254;28;1410;-71
2022/12/27 16:50:29;;;;;;;4.13;2.30;;;;;;;;;;517662;28;1382;-71
2022/12/27 16:50:54;;;;;;;3.90;2.20;;;;;;;;;;518588;28;1339;-71
2022/12/27 16:51:15;;;;;;;3.50;2.22;;;;;;;;;;518096;28;1342;-72
2022/12/27 16:51:52;;;;;;;3.83;2.38;;;;;;;;;;519329;28;2599;-72
2022/12/27 16:52:22;;;;;;;3.85;2.20;;;;;;;;;;518889;28;1182;-72
2022/12/27 16:52:59;;;;;;;4.18;2.25;;;;;;;;;;519951;28;1401;-71
2022/12/27 16:53:20;;;;;;;3.63;2.20;;;;;;;;;;520003;28;1316;-71
2022/12/27 16:53:42;;;;;;;3.70;2.30;;;;;;;;;;519910;28;1368;-71
2022/12/27 16:54:04;;;;;;;3.42;2.08;;;;;;;;;;519023;28;1336;-71
2022/12/27 16:54:44;;;;;;;3.92;2.20;;;;;;;;;;516137;28;1382;-71
2022/12/27 16:55:30;;;;;;;3.92;2.08;;;;;;;;;;515337;28;1322;-71
2022/12/27 16:56:07;;;;;;;4.00;2.30;;;;;;;;;;513215;28;1342;-72
2022/12/27 16:56:26;;;;;;;4.53;2.40;;;;;;;;;;518370;28;1090;-71
2022/12/27 16:56:43;;;;;;;4.55;2.30;;;;;;;;;;515717;28;1327;-71
2022/12/27 16:57:23;;;;;;;3.80;2.28;;;;;;;;;;514705;28;1144;-71
2022/12/27 16:57:42;;;;;;;3.95;2.13;;;;;;;;;;516067;28;1056;-71
2022/12/27 16:58:17;;;;;;;4.13;2.22;;;;;;;;;;516115;28;1490;-71
2022/12/27 16:58:36;;;;;;;4.32;2.20;;;;;;;;;;523348;28;1265;-71
2022/12/27 16:58:52;;;;;;;3.92;2.10;;;;;;;;;;522909;28;1468;-71
2022/12/27 17:00:02;;;;;;;4.05;2.30;;;;;;;;;;523908;28;1375;-73
2022/12/27 17:00:41;;;;;;;3.75;2.22;;;;;;;;;;517795;28;1377;-73
2022/12/27 17:00:59;;;;;;;3.78;2.10;;;;;;;;;;517007;28;1832;-74
2022/12/27 17:01:24;;;;;;;3.88;2.20;;;;;;;;;;516453;28;1318;-73
2022/12/27 17:01:43;;;;;;;3.72;2.35;;;;;;;;;;517545;28;1500;-74
2022/12/27 17:01:59;;;;;;;3.83;2.20;;;;;;;;;;518058;28;1386;-73
2022/12/27 17:02:48;;;;;;;4.00;2.03;;;;;;;;;;517981;28;1349;-74
2022/12/27 17:03:30;;;;;;;5.43;2.15;;;;;;;;;;509478;28;1810;-74
2022/12/27 17:03:48;;;;;;;3.63;2.05;;;;;;;;;;511622;28;1304;-73
2022/12/27 17:04:04;;;;;;;3.25;1.98;;;;;;;;;;510007;28;1324;-73
2022/12/27 17:04:59;;;;;;;3.45;1.92;;;;;;;;;;518312;28;2091;-73
2022/12/27 17:05:15;;;;;;;4.32;2.10;;;;;;;;;;515389;28;1363;-73
2022/12/27 17:05:34;;;;;;;3.88;2.08;;;;;;;;;;515967;28;1347;-74
2022/12/27 17:05:52;;;;;;;4.57;2.30;;;;;;;;;;517096;28;1747;-73
2022/12/27 17:06:13;;;;;;;4.22;2.00;;;;;;;;;;516391;28;1418;-74
2022/12/27 17:06:28;;;;;;;2.97;2.00;;;;;;;;;;516030;28;1329;-73
2022/12/27 17:06:44;;;;;;;3.03;2.00;;;;;;;;;;516468;28;1164;-73
2022/12/27 17:06:59;;;;;;;3.57;2.00;;;;;;;;;;515087;28;1224;-74
2022/12/27 17:07:35;;;;;;;4.30;2.05;;;;;;;;;;513911;28;1296;-74
2022/12/27 17:07:51;;;;;;;3.25;2.03;;;;;;;;;;512602;28;1272;-72
2022/12/27 17:08:19;;;;;;;3.43;2.10;;;;;;;;;;513791;28;1446;-74
2022/12/27 17:08:34;;;;;;;4.22;2.17;;;;;;;;;;515020;28;1187;-73
2022/12/27 17:09:07;;;;;;;3.57;2.07;;;;;;;;;;516268;28;1277;-73
2022/12/27 17:09:23;;;;;;;3.55;2.28;;;;;;;;;;515881;28;1211;-74
2022/12/27 17:09:40;;;;;;;3.63;2.20;;;;;;;;;;516407;28;1283;-73
2022/12/27 17:10:35;;;;;;;3.75;2.10;;;;;;;;;;515579;28;1101;-73
2022/12/27 17:10:50;;;;;;;3.95;2.10;;;;;;;;;;512670;28;1383;-73
2022/12/27 17:11:27;;;;;;;3.67;1.92;;;;;;;;;;512326;28;1499;-74
2022/12/27 17:11:51;;;;;;;3.60;2.00;;;;;;;;;;515344;28;1218;-74
2022/12/27 17:12:15;;;;;;;3.88;2.03;;;;;;;;;;513196;28;1509;-76
2022/12/27 17:12:31;;;;;;;3.67;2.10;;;;;;;;;;513339;28;1461;-74
2022/12/27 17:12:50;;;;;;;3.30;2.10;;;;;;;;;;513458;28;1462;-74
2022/12/27 17:13:14;;;;;;;3.40;2.00;;;;;;;;;;513206;28;1262;-74
2022/12/27 17:13:33;;;;;;;4.40;2.00;;;;;;;;;;514279;28;1297;-75
2022/12/27 17:13:56;;;;;;;4.35;2.20;;;;;;;;;;512066;28;1864;-76
2022/12/27 17:14:14;;;;;;;3.97;2.15;;;;;;;;;;513592;28;1089;-77
2022/12/27 17:14:34;;;;;;;3.72;2.10;;;;;;;;;;515836;28;1256;-76
2022/12/27 17:14:53;;;;;;;4.15;1.90;;;;;;;;;;511512;28;1634;-76
2022/12/27 17:15:10;;;;;;;4.20;2.15;;;;;;;;;;516671;28;1445;-76
2022/12/27 17:15:28;;;;;;;4.43;2.20;;;;;;;;;;513539;28;1646;-77
2022/12/27 17:15:53;;;;;;;4.22;2.00;;;;;;;;;;514737;28;1267;-71
2022/12/27 17:16:11;;;;;;;4.33;1.90;;;;;;;;;;512612;28;1280;-71
2022/12/27 17:16:31;;;;;;;5.65;2.03;;;;;;;;;;511564;28;1256;-70
2022/12/27 17:16:54;;;;;;;4.70;2.17;;;;;;;;;;514725;28;1469;-71
2022/12/27 17:17:16;;;;;;;3.78;2.13;;;;;;;;;;515993;28;1755;-70
2022/12/27 17:17:32;;;;;;;4.68;2.00;;;;;;;;;;517365;28;1125;-70
2022/12/27 17:17:52;;;;;;;4.23;1.97;;;;;;;;;;513977;28;1388;-70
2022/12/27 17:18:21;;;;;;;3.67;1.90;;;;;;;;;;515513;28;1374;-70